Time;durP1;ratioP1;P1;durP2;ratioP2;P2;SDS_P1;SDS_P2;PMS_P1;PMS_P2;Temp;Humidity;BMP_temperature;BMP_pressure;BME280_temperature;BME280_humidity;BME280_pressure;Samples;Min_cycle;Max_cycle;Signal;HPM_P1;HPM_P2
2021/09/21 00:02:36;;;;;;;12.9;9.4;;;;;;;5.23;100;99242.37;;;;
2021/09/21 00:12:34;;;;;;;12.3;9.5;;;;;;;5.3;100;99248.3;;;;
2021/09/21 00:22:33;;;;;;;12.8;10.2;;;;;;;5.56;100;99258.08;;;;
2021/09/21 00:32:31;;;;;;;9.5;7.5;;;;;;;5.91;100;99270.06;;;;
2021/09/21 00:42:30;;;;;;;12.5;9.3;;;;;;;6.2;100;99262.44;;;;
2021/09/21 00:52:28;;;;;;;14;10.3;;;;;;;6.31;100;99253.38;;;;
2021/09/21 01:02:27;;;;;;;13.3;9.7;;;;;;;6.33;100;99246.69;;;;
2021/09/21 01:12:25;;;;;;;12.5;10.1;;;;;;;6.16;100;99239.94;;;;
2021/09/21 01:22:24;;;;;;;13.9;10.5;;;;;;;6;100;99236.42;;;;
2021/09/21 01:32:23;;;;;;;14;10;;;;;;;5.82;100;99234.97;;;;
2021/09/21 01:42:21;;;;;;;13.7;10.7;;;;;;;5.73;100;99238.38;;;;
2021/09/21 01:52:23;;;;;;;13.1;9.5;;;;;;;5.61;100;99233.25;;;;
2021/09/21 02:02:18;;;;;;;12;10.8;;;;;;;5.42;100;99234.72;;;;
2021/09/21 02:12:17;;;;;;;18.1;9.2;;;;;;;5.15;100;99242.02;;;;
2021/09/21 02:22:15;;;;;;;14.2;9.3;;;;;;;4.89;100;99257.87;;;;
2021/09/21 02:32:13;;;;;;;11.8;9.5;;;;;;;4.76;100;99257.45;;;;
2021/09/21 02:42:12;;;;;;;10;9;;;;;;;5.03;100;99269.71;;;;
2021/09/21 02:52:10;;;;;;;17.1;11.5;;;;;;;5.37;100;99267.59;;;;
2021/09/21 03:02:09;;;;;;;16.2;11.6;;;;;;;5.47;100;99297.06;;;;
2021/09/21 03:12:21;;;;;;;16.1;13.2;;;;;;;5.56;100;99289.36;;;;
2021/09/21 03:22:06;;;;;;;13.9;11.7;;;;;;;5.71;100;99296.67;;;;
2021/09/21 03:32:05;;;;;;;14.4;11.2;;;;;;;6;100;99309.44;;;;
2021/09/21 03:42:03;;;;;;;15;11;;;;;;;6.11;100;99304.16;;;;
2021/09/21 03:52:03;;;;;;;12.5;9.8;;;;;;;5.83;100;99300.75;;;;
2021/09/21 04:02:00;;;;;;;14.2;12.8;;;;;;;5.54;100;99291.49;;;;
2021/09/21 04:11:59;;;;;;;17.6;12.8;;;;;;;5.59;100;99296.86;;;;
2021/09/21 04:22:03;;;;;;;16.3;13.8;;;;;;;5.73;100;99295.34;;;;
2021/09/21 04:31:59;;;;;;;17.1;13.5;;;;;;;5.81;100;99297.55;;;;
2021/09/21 04:41:59;;;;;;;21.4;14.4;;;;;;;6;100;99301.41;;;;
2021/09/21 04:51:53;;;;;;;16.8;10.9;;;;;;;5.94;100;99302.45;;;;
2021/09/21 05:01:52;;;;;;;18.6;12;;;;;;;5.9;100;99312.06;;;;
2021/09/21 05:11:51;;;;;;;15.2;12.6;;;;;;;6.12;100;99329.83;;;;
2021/09/21 05:21:49;;;;;;;18.3;13.8;;;;;;;6.46;100;99344.44;;;;
2021/09/21 05:31:48;;;;;;;19.8;16.6;;;;;;;6.85;100;99355.56;;;;
2021/09/21 05:41:47;;;;;;;24.3;19.8;;;;;;;7.19;100;99372.78;;;;
2021/09/21 05:51:45;;;;;;;18.2;16.2;;;;;;;7.59;100;99386.23;;;;
2021/09/21 06:01:44;;;;;;;30.3;21.3;;;;;;;7.81;100;99399.36;;;;
2021/09/21 06:11:43;;;;;;;28.3;18.7;;;;;;;8.13;100;99415.16;;;;
2021/09/21 06:21:42;;;;;;;21.4;16.4;;;;;;;8.31;100;99411.95;;;;
2021/09/21 06:31:41;;;;;;;18.5;16.7;;;;;;;8.58;100;99417.77;;;;
2021/09/21 06:41:40;;;;;;;21.1;16.3;;;;;;;9.1;100;99409.21;;;;
2021/09/21 06:51:38;;;;;;;21.5;17.6;;;;;;;9.3;100;99402.12;;;;
2021/09/21 07:01:37;;;;;;;21.1;16.4;;;;;;;9.21;100;99417.22;;;;
2021/09/21 07:11:37;;;;;;;27.2;15;;;;;;;9.32;100;99410.7;;;;
2021/09/21 07:21:35;;;;;;;17.5;15.7;;;;;;;9.72;100;99407.7;;;;
2021/09/21 07:31:34;;;;;;;26.8;14.9;;;;;;;9.88;100;99419.98;;;;
2021/09/21 07:41:33;;;;;;;21;16.3;;;;;;;10.29;100;99419.63;;;;
2021/09/21 07:51:32;;;;;;;20.9;13.5;;;;;;;10.77;100;99413.15;;;;
2021/09/21 08:01:32;;;;;;;14.5;11.4;;;;;;;10.93;100;99416.48;;;;
2021/09/21 08:11:31;;;;;;;14.1;12.6;;;;;;;11.27;100;99411.69;;;;
2021/09/21 08:21:30;;;;;;;16;11.2;;;;;;;11.61;100;99433.05;;;;
2021/09/21 08:31:29;;;;;;;16.8;12;;;;;;;11.63;100;99427.37;;;;
2021/09/21 08:41:29;;;;;;;11.6;9.2;;;;;;;12;100;99438.94;;;;
2021/09/21 08:51:28;;;;;;;12.2;9.1;;;;;;;11.96;100;99450.63;;;;
2021/09/21 09:01:27;;;;;;;9.9;8.2;;;;;;;12.85;100;99457.38;;;;
2021/09/21 09:11:27;;;;;;;13.6;8.9;;;;;;;12.76;100;99453.78;;;;
2021/09/21 09:21:26;;;;;;;13.3;8.7;;;;;;;13.1;100;99458.8;;;;
2021/09/21 09:31:25;;;;;;;8.9;6.2;;;;;;;13.48;100;99468.27;;;;
2021/09/21 09:41:25;;;;;;;14.1;9.6;;;;;;;13.56;100;99466.74;;;;
2021/09/21 09:51:24;;;;;;;12.1;9.1;;;;;;;13.71;100;99465.59;;;;
2021/09/21 10:01:24;;;;;;;10.8;8.2;;;;;;;14.17;100;99462.56;;;;
2021/09/21 10:11:23;;;;;;;11.6;6.8;;;;;;;13.89;100;99461.89;;;;
2021/09/21 10:21:23;;;;;;;10;6.9;;;;;;;13.94;100;99451.75;;;;
2021/09/21 10:31:23;;;;;;;14.7;6.8;;;;;;;14.44;100;99457.01;;;;
2021/09/21 10:41:22;;;;;;;8.7;5.7;;;;;;;14.13;100;99462.38;;;;
2021/09/21 10:51:22;;;;;;;10.4;5.3;;;;;;;14.4;100;99458.77;;;;
2021/09/21 11:01:21;;;;;;;10.2;6.8;;;;;;;14.04;100;99462.34;;;;
2021/09/21 11:11:21;;;;;;;10.4;7.4;;;;;;;14.04;100;99434.43;;;;
2021/09/21 11:21:20;;;;;;;11.2;7.5;;;;;;;13.91;100;99438.02;;;;
2021/09/21 11:31:20;;;;;;;8.9;5.9;;;;;;;15.09;100;99417.2;;;;
2021/09/21 11:41:21;;;;;;;7.8;5.8;;;;;;;14.47;100;99411.08;;;;
2021/09/21 11:51:20;;;;;;;8.7;6;;;;;;;13.95;100;99423.52;;;;
2021/09/21 12:01:19;;;;;;;16;6.7;;;;;;;13.94;100;99413.81;;;;
2021/09/21 12:11:19;;;;;;;10.4;6;;;;;;;14.26;100;99420.86;;;;
2021/09/21 12:21:18;;;;;;;8.6;4.2;;;;;;;14.63;100;99408.77;;;;
2021/09/21 12:31:18;;;;;;;6;4.1;;;;;;;14.31;100;99403.63;;;;
2021/09/21 12:41:17;;;;;;;8.9;5.2;;;;;;;14.88;100;99407.25;;;;
2021/09/21 12:51:17;;;;;;;7.9;5.2;;;;;;;15.32;100;99400.77;;;;
2021/09/21 13:01:17;;;;;;;6.9;3.7;;;;;;;15.92;100;99403.5;;;;
2021/09/21 13:11:17;;;;;;;5.7;3.2;;;;;;;16.3;100;99392.68;;;;
2021/09/21 13:21:16;;;;;;;4.9;3.1;;;;;;;15.43;100;99383.03;;;;
2021/09/21 13:31:16;;;;;;;5;2.7;;;;;;;15.41;100;99379.86;;;;
2021/09/21 13:41:16;;;;;;;6;2.8;;;;;;;14.68;100;99376.08;;;;
2021/09/21 13:51:16;;;;;;;6.5;3.5;;;;;;;14.6;100;99376.84;;;;
2021/09/21 14:01:15;;;;;;;5.8;3.7;;;;;;;14.77;100;99376.89;;;;
2021/09/21 14:11:15;;;;;;;8;4.3;;;;;;;15.26;100;99369.45;;;;
2021/09/21 14:21:15;;;;;;;7.8;3.2;;;;;;;14.72;100;99368.88;;;;
2021/09/21 14:31:14;;;;;;;5.9;3.4;;;;;;;14.09;100;99372.75;;;;
2021/09/21 14:41:14;;;;;;;8.1;4.6;;;;;;;13.38;100;99370.2;;;;
2021/09/21 14:51:14;;;;;;;8.3;4.2;;;;;;;13.01;100;99374;;;;
2021/09/21 15:01:13;;;;;;;6.4;4.6;;;;;;;12.85;100;99368.09;;;;
2021/09/21 15:11:13;;;;;;;7.4;4.9;;;;;;;12.71;100;99383.54;;;;
2021/09/21 15:21:12;;;;;;;10.5;6.2;;;;;;;12.57;100;99390.86;;;;
2021/09/21 15:31:13;;;;;;;9.1;5;;;;;;;12.52;100;99394.48;;;;
2021/09/21 15:41:11;;;;;;;9.9;5.6;;;;;;;12.33;100;99384.84;;;;
2021/09/21 15:51:10;;;;;;;10.1;6;;;;;;;12.18;100;99382.44;;;;
2021/09/21 16:01:09;;;;;;;6.8;4.5;;;;;;;12.04;100;99382.41;;;;
2021/09/21 16:11:09;;;;;;;9.4;5.8;;;;;;;11.9;100;99395.89;;;;
2021/09/21 16:21:08;;;;;;;11.2;7;;;;;;;11.74;100;99405.33;;;;
2021/09/21 16:31:07;;;;;;;8.5;5.5;;;;;;;11.47;100;99400.59;;;;
2021/09/21 16:41:07;;;;;;;8.7;5.1;;;;;;;11.26;100;99412.77;;;;
2021/09/21 16:51:06;;;;;;;8.9;6.3;;;;;;;11.16;100;99404.02;;;;
2021/09/21 17:01:05;;;;;;;12.9;7.4;;;;;;;11.07;100;99409.28;;;;
2021/09/21 17:11:04;;;;;;;13.2;9.8;;;;;;;10.99;100;99423.41;;;;
2021/09/21 17:21:04;;;;;;;17.3;11.6;;;;;;;10.87;100;99421.11;;;;
2021/09/21 17:31:03;;;;;;;16.3;10.9;;;;;;;10.76;100;99414.23;;;;
2021/09/21 17:41:03;;;;;;;17.7;14;;;;;;;10.71;100;99417;;;;
2021/09/21 17:51:01;;;;;;;11.9;10.1;;;;;;;10.5;100;99411.05;;;;
2021/09/21 18:01:00;;;;;;;11.7;6.8;;;;;;;10.42;100;99400.08;;;;
2021/09/21 18:11:04;;;;;;;11.6;10.4;;;;;;;10.18;100;99397.36;;;;
2021/09/21 18:21:33;;;;;;;14.2;11.6;;;;;;;10.32;100;99400.19;;;;
2021/09/21 18:31:01;;;;;;;33.1;26.7;;;;;;;10.29;100;99396.18;;;;
2021/09/21 18:41:01;;;;;;;39.1;33.6;;;;;;;10.33;100;99409.88;;;;
2021/09/21 18:50:56;;;;;;;26.1;22.5;;;;;;;10.31;100;99398.6;;;;
2021/09/21 19:00:55;;;;;;;22.9;16.9;;;;;;;10.35;100;99386.14;;;;
2021/09/21 19:10:54;;;;;;;22.3;16.3;;;;;;;10.34;100;99379.17;;;;
2021/09/21 19:20:53;;;;;;;24.7;17.9;;;;;;;10.46;100;99368.77;;;;
2021/09/21 19:30:52;;;;;;;21.4;14.6;;;;;;;10.46;100;99366.89;;;;
2021/09/21 19:40:52;;;;;;;18.6;15.4;;;;;;;10.46;100;99366.08;;;;
2021/09/21 19:50:50;;;;;;;27.4;18.8;;;;;;;10.44;100;99370.97;;;;
2021/09/21 20:00:52;;;;;;;18.1;14;;;;;;;10.38;100;99362.12;;;;
2021/09/21 20:10:49;;;;;;;14.6;13;;;;;;;10.36;100;99352.73;;;;
2021/09/21 20:20:48;;;;;;;17.1;13.5;;;;;;;10.31;100;99361.66;;;;
2021/09/21 20:30:47;;;;;;;15.8;13.5;;;;;;;10.26;100;99364.42;;;;
2021/09/21 20:40:46;;;;;;;18.7;15.5;;;;;;;10.3;100;99353.88;;;;
2021/09/21 20:50:45;;;;;;;22.1;15;;;;;;;10.2;100;99357.5;;;;
2021/09/21 21:00:44;;;;;;;17.6;13.3;;;;;;;10.07;100;99348.16;;;;
2021/09/21 21:10:43;;;;;;;21.3;12.3;;;;;;;9.96;100;99360.11;;;;
2021/09/21 21:20:42;;;;;;;16.4;14.6;;;;;;;9.72;100;99350.41;;;;
2021/09/21 21:30:41;;;;;;;16.5;12.6;;;;;;;9.69;100;99353.63;;;;
2021/09/21 21:40:40;;;;;;;14;10.8;;;;;;;9.58;100;99352.92;;;;
2021/09/21 21:50:39;;;;;;;14.3;12.1;;;;;;;9.51;100;99352.47;;;;
2021/09/21 22:00:38;;;;;;;16.3;13.4;;;;;;;9.39;100;99341.25;;;;
2021/09/21 22:10:37;;;;;;;17.2;12.9;;;;;;;9.38;100;99324.3;;;;
2021/09/21 22:20:36;;;;;;;14.3;12.4;;;;;;;9.3;100;99318.73;;;;
2021/09/21 22:30:35;;;;;;;14.4;10.7;;;;;;;9.31;100;99320.31;;;;
2021/09/21 22:40:33;;;;;;;16.8;12.8;;;;;;;9.37;100;99313.84;;;;
2021/09/21 22:50:32;;;;;;;16.1;12.2;;;;;;;9.42;100;99314.59;;;;
2021/09/21 23:00:31;;;;;;;19.3;13.3;;;;;;;9.4;100;99300.63;;;;
2021/09/21 23:10:30;;;;;;;15.3;11.6;;;;;;;9.36;100;99290.7;;;;
2021/09/21 23:20:29;;;;;;;19;14.1;;;;;;;9.34;100;99276.71;;;;
2021/09/21 23:30:28;;;;;;;16.5;14.3;;;;;;;9.33;100;99258.98;;;;
2021/09/21 23:40:27;;;;;;;15.8;13;;;;;;;9.29;100;99252.56;;;;
2021/09/21 23:50:26;;;;;;;14.9;13.4;;;;;;;9.25;100;99235.38;;;;
